createdAt,value
2022-08-19T00:04:32.939Z,100876.94
2022-08-19T00:09:36.612Z,100882.56
2022-08-19T00:14:41.879Z,100885.59
2022-08-19T00:19:45.454Z,100891.84
2022-08-19T00:24:50.863Z,100893.97
2022-08-19T00:29:56.350Z,100892.13
2022-08-19T00:35:00.108Z,100887.69
2022-08-19T00:40:05.872Z,100890.69
2022-08-19T00:45:17.256Z,100893.03
2022-08-19T00:50:22.760Z,100900.66
2022-08-19T00:55:28.509Z,100890.88
2022-08-19T01:00:34.462Z,100886.22
2022-08-19T01:05:39.184Z,100884.47
2022-08-19T01:10:45.941Z,100878.59
2022-08-19T01:15:56.667Z,100875.91
2022-08-19T01:21:07.602Z,100879.50
2022-08-19T01:26:16.293Z,100867.56
2022-08-19T01:31:26.717Z,100864.09
2022-08-19T01:36:33.527Z,100874.56
2022-08-19T01:41:39.449Z,100876.91
2022-08-19T01:46:44.036Z,100872.19
2022-08-19T01:51:46.890Z,100874.22
2022-08-19T01:56:53.358Z,100887.63
2022-08-19T02:01:56.958Z,100875.97
2022-08-19T02:07:00.573Z,100876.38
2022-08-19T02:12:06.958Z,100885.31
2022-08-19T02:17:10.843Z,100894.25
2022-08-19T02:22:14.680Z,100893.97
2022-08-19T02:27:20.139Z,100895.56
2022-08-19T02:32:23.724Z,100890.31
2022-08-19T02:37:27.380Z,100894.84
2022-08-19T02:42:36.779Z,100892.69
2022-08-19T02:47:40.615Z,100894.34
2022-08-19T02:52:44.220Z,100898.94
2022-08-19T02:57:49.754Z,100893.38
2022-08-19T03:02:53.622Z,100898.41
2022-08-19T03:07:57.287Z,100904.38
2022-08-19T03:13:02.585Z,100905.03
2022-08-19T03:18:08.428Z,100914.19
2022-08-19T03:23:13.238Z,100921.50
2022-08-19T03:28:18.869Z,100924.00
2022-08-19T03:33:22.481Z,100926.19
2022-08-19T03:38:32.383Z,100924.97
2022-08-19T03:43:38.664Z,100932.91
2022-08-19T03:48:43.835Z,100920.75
2022-08-19T03:53:47.079Z,100928.00
2022-08-19T03:58:52.353Z,100936.38
2022-08-19T04:03:57.282Z,100940.88
2022-08-19T04:09:02.040Z,100948.19
2022-08-19T04:14:07.238Z,100945.84
2022-08-19T04:19:10.064Z,100944.06
2022-08-19T04:24:14.065Z,100939.47
2022-08-19T04:29:21.706Z,100946.22
2022-08-19T04:34:27.422Z,100948.09
2022-08-19T04:39:32.411Z,100947.31
2022-08-19T04:44:46.285Z,100950.28
2022-08-19T04:49:50.037Z,100938.50
2022-08-19T04:54:53.622Z,100943.66
2022-08-19T04:59:59.072Z,100947.00
2022-08-19T05:05:02.830Z,100933.75
2022-08-19T05:10:07.666Z,100928.69
2022-08-19T05:15:13.998Z,100926.38
2022-08-19T05:20:17.671Z,100918.63
2022-08-19T05:25:22.954Z,100917.94
2022-08-19T05:30:46.126Z,100919.13
2022-08-19T05:35:51.110Z,100919.97
2022-08-19T05:40:54.755Z,100918.25
2022-08-19T05:46:00.026Z,100912.97
2022-08-19T05:51:07.295Z,100905.69
2022-08-19T05:56:13.618Z,100905.16
2022-08-19T06:01:19.967Z,100921.66
2022-08-19T06:06:24.325Z,100918.03
2022-08-19T06:11:35.582Z,100912.88
2022-08-19T06:16:42.580Z,100911.03
2022-08-19T06:21:48.830Z,100908.28
2022-08-19T06:26:56.718Z,100900.75
2022-08-19T06:32:04.835Z,100908.50
2022-08-19T06:37:08.493Z,100907.41
2022-08-19T06:42:13.173Z,100906.47
2022-08-19T06:47:24.021Z,100907.16
2022-08-19T06:52:34.075Z,100899.72
2022-08-19T06:57:37.971Z,100899.03
2022-08-19T07:02:48.067Z,100898.13
2022-08-19T07:08:04.622Z,100896.78
2022-08-19T07:13:08.623Z,100898.03
2022-08-19T07:18:15.839Z,100899.50
2022-08-19T07:23:20.658Z,100902.66
2022-08-19T07:28:27.729Z,100905.88
2022-08-19T07:33:33.107Z,100901.34
2022-08-19T07:38:36.868Z,100907.25
2022-08-19T07:43:41.027Z,100908.38
2022-08-19T07:48:46.863Z,100910.34
2022-08-19T07:53:51.952Z,100905.50
2022-08-19T08:04:01.827Z,100891.69
2022-08-19T08:09:07.007Z,100892.31
2022-08-19T08:14:29.319Z,100886.84
2022-08-19T08:19:35.116Z,100877.84
2022-08-19T08:24:39.062Z,100875.28
2022-08-19T08:29:44.101Z,100862.63
2022-08-19T08:34:50.255Z,100869.09
2022-08-19T08:39:56.156Z,100864.84
2022-08-19T08:45:02.407Z,100865.97
2022-08-19T08:50:11.031Z,100858.22
2022-08-19T08:55:17.542Z,100851.81
2022-08-19T09:00:27.439Z,100853.69
2022-08-19T09:05:48.753Z,100860.78
2022-08-19T09:10:56.540Z,100855.72
2022-08-19T09:16:07.073Z,100858.06
2022-08-19T09:21:12.574Z,100862.03
2022-08-19T09:26:19.929Z,100860.44
2022-08-19T09:31:25.680Z,100853.16
2022-08-19T09:36:34.757Z,100851.25
2022-08-19T09:41:38.604Z,100852.91
2022-08-19T09:46:44.544Z,100836.53
2022-08-19T09:51:52.395Z,100842.56
2022-08-19T09:56:57.107Z,100838.22
2022-08-19T10:02:03.950Z,100839.16
2022-08-19T10:07:16.624Z,100840.94
2022-08-19T10:12:21.445Z,100839.41
2022-08-19T10:17:27.383Z,100837.44
2022-08-19T10:22:33.179Z,100841.41
2022-08-19T10:27:36.841Z,100841.13
2022-08-19T10:32:46.495Z,100845.59
2022-08-19T10:37:57.320Z,100838.38
2022-08-19T10:43:03.835Z,100829.50
2022-08-19T10:48:07.531Z,100828.63
2022-08-19T10:53:17.424Z,100832.19
2022-08-19T10:58:22.454Z,100824.22
2022-08-19T11:03:27.288Z,100817.41
2022-08-19T11:08:34.443Z,100836.19
2022-08-19T11:13:40.526Z,100835.56
2022-08-19T11:18:46.195Z,100835.78
2022-08-19T11:23:54.565Z,100835.50
2022-08-19T11:28:59.822Z,100842.13
2022-08-19T11:34:09.073Z,100844.91
2022-08-19T11:39:15.754Z,100832.75
2022-08-19T11:44:19.373Z,100832.81
2022-08-19T11:49:22.982Z,100827.53
2022-08-19T11:54:28.192Z,100832.66
2022-08-19T11:59:31.777Z,100830.16
2022-08-19T12:04:36.256Z,100825.66
2022-08-19T12:09:42.661Z,100835.56
2022-08-19T12:14:46.464Z,100837.56
2022-08-19T12:19:50.059Z,100837.56
2022-08-19T12:24:55.322Z,100831.44
2022-08-19T12:29:58.981Z,100826.81
2022-08-19T12:35:02.569Z,100838.06
2022-08-19T12:40:09.046Z,100831.22
2022-08-19T12:45:14.558Z,100827.66
2022-08-19T12:50:18.413Z,100835.69
2022-08-19T12:55:24.637Z,100823.47
2022-08-19T13:00:28.193Z,100825.16
2022-08-19T13:05:33.602Z,100830.69
2022-08-19T13:10:39.110Z,100830.16
2022-08-19T13:15:43.642Z,100826.75
2022-08-19T13:20:52.714Z,100829.78
2022-08-19T13:26:02.402Z,100837.81
2022-08-19T13:31:06.021Z,100832.88
2022-08-19T13:36:09.868Z,100839.00
2022-08-19T13:41:16.077Z,100835.78
2022-08-19T13:46:19.666Z,100837.03
2022-08-19T13:51:23.258Z,100850.22
2022-08-19T13:56:28.511Z,100846.31
2022-08-19T14:01:32.092Z,100855.34
2022-08-19T14:06:35.913Z,100854.59
2022-08-19T14:11:41.143Z,100862.22
2022-08-19T14:16:44.734Z,100854.66
2022-08-19T14:21:48.361Z,100856.53
2022-08-19T14:26:53.561Z,100864.13
2022-08-19T14:31:57.508Z,100868.84
2022-08-19T14:37:01.137Z,100868.75
2022-08-19T14:42:11.544Z,100861.66
2022-08-19T14:47:15.712Z,100871.13
2022-08-19T14:52:19.317Z,100867.38
2022-08-19T14:57:24.615Z,100873.16
2022-08-19T15:02:35.057Z,100881.44
2022-08-19T15:07:39.392Z,100881.72
2022-08-19T15:12:47.574Z,100882.50
2022-08-19T15:17:53.445Z,100890.00
2022-08-19T15:22:57.130Z,100892.28
2022-08-19T15:28:02.419Z,100895.66
2022-08-19T15:33:06.690Z,100895.75
2022-08-19T15:38:10.498Z,100888.56
2022-08-19T15:43:15.766Z,100894.97
2022-08-19T15:48:19.368Z,100895.38
2022-08-19T15:53:22.942Z,100898.00
2022-08-19T15:58:29.750Z,100894.38
2022-08-19T16:03:33.660Z,100888.28
2022-08-19T16:08:49.286Z,100886.00
2022-08-19T16:14:32.397Z,100880.94
2022-08-19T16:19:36.008Z,100884.72
2022-08-19T16:24:39.587Z,100882.56
2022-08-19T16:29:45.715Z,100884.97
2022-08-19T16:34:49.627Z,100877.63
2022-08-19T16:39:53.295Z,100866.13
2022-08-19T16:44:58.584Z,100858.97
2022-08-19T16:50:02.181Z,100863.00
2022-08-19T16:55:07.302Z,100858.38
2022-08-19T17:00:15.146Z,100863.75
2022-08-19T17:05:22.269Z,100863.75
2022-08-19T17:10:27.046Z,100864.16
2022-08-19T17:15:32.607Z,100864.69
2022-08-19T17:20:35.970Z,100858.84
2022-08-19T17:25:42.412Z,100853.50
2022-08-19T17:30:47.799Z,100851.84
2022-08-19T17:35:51.457Z,100856.59
2022-08-19T17:40:55.439Z,100854.84
2022-08-19T17:46:00.810Z,100853.72
2022-08-19T17:51:13.919Z,100856.41
2022-08-19T17:56:18.160Z,100849.31
2022-08-19T18:01:23.519Z,100845.56
2022-08-19T18:06:28.953Z,100840.75
2022-08-19T18:11:32.927Z,100844.03
2022-08-19T18:16:38.199Z,100840.88
2022-08-19T18:21:41.801Z,100830.69
2022-08-19T18:26:45.404Z,100812.34
2022-08-19T18:31:50.658Z,100823.28
2022-08-19T18:36:54.388Z,100822.31
2022-08-19T18:41:58.002Z,100814.16
2022-08-19T18:47:03.299Z,100803.03
2022-08-19T18:52:07.022Z,100797.94
2022-08-19T18:57:10.623Z,100782.63
2022-08-19T19:02:16.963Z,100777.59
2022-08-19T19:07:20.559Z,100773.47
2022-08-19T19:12:24.119Z,100766.50
2022-08-19T19:17:29.385Z,100759.00
2022-08-19T19:22:32.975Z,100756.56
2022-08-19T19:27:36.598Z,100758.53
2022-08-19T19:32:41.835Z,100748.28
2022-08-19T19:37:45.407Z,100742.53
2022-08-19T19:42:49.088Z,100736.44
2022-08-19T19:47:54.443Z,100731.13
2022-08-19T19:52:59.196Z,100719.53
2022-08-19T19:58:02.017Z,100718.00
2022-08-19T20:03:07.298Z,100703.03
2022-08-19T20:08:11.611Z,100701.00
2022-08-19T20:13:15.649Z,100699.50
2022-08-19T20:18:21.050Z,100685.94
2022-08-19T20:23:24.666Z,100678.19
2022-08-19T20:28:28.345Z,100673.72
2022-08-19T20:33:33.586Z,100670.63
2022-08-19T20:38:37.376Z,100668.94
2022-08-19T20:43:40.949Z,100664.69
2022-08-19T20:48:46.193Z,100662.38
2022-08-19T20:53:49.814Z,100658.13
2022-08-19T20:58:57.952Z,100649.91
2022-08-19T21:04:05.434Z,100647.53
2022-08-19T21:09:09.034Z,100644.69
2022-08-19T21:14:12.606Z,100636.28
2022-08-19T21:19:22.011Z,100634.47
2022-08-19T21:24:31.534Z,100642.13
2022-08-19T21:29:35.439Z,100629.25
2022-08-19T21:34:40.702Z,100618.53
2022-08-19T21:39:46.498Z,100614.00
2022-08-19T21:44:53.400Z,100615.84
2022-08-19T21:49:58.630Z,100601.88
2022-08-19T21:55:02.226Z,100601.19
2022-08-19T22:00:08.733Z,100597.22
2022-08-19T22:05:14.902Z,100592.03
2022-08-19T22:10:19.006Z,100586.94
2022-08-19T22:15:25.021Z,100572.81
2022-08-19T22:20:32.417Z,100559.28
2022-08-19T22:25:39.204Z,100557.53
2022-08-19T22:30:44.870Z,100548.38
2022-08-19T22:35:52.097Z,100540.69
2022-08-19T22:40:56.018Z,100532.34
2022-08-19T22:46:00.578Z,100533.34
2022-08-19T22:51:05.815Z,100519.22
2022-08-19T22:56:15.128Z,100513.41
2022-08-19T23:01:29.709Z,100518.00
2022-08-19T23:06:38.207Z,100506.13
2022-08-19T23:11:45.732Z,100496.84
2022-08-19T23:16:51.277Z,100498.91
2022-08-19T23:21:57.054Z,100495.38
2022-08-19T23:27:00.655Z,100477.13
2022-08-19T23:32:04.605Z,100484.28
2022-08-19T23:37:09.843Z,100485.16
2022-08-19T23:42:14.244Z,100479.41
2022-08-19T23:47:17.141Z,100478.16
2022-08-19T23:52:22.845Z,100472.56
2022-08-19T23:57:26.436Z,100462.03
